Main page
METAR-TAF:

METAR-TAF

Airports :

Abilene Regional Airport

Abilene, Texas, United States

latitude: 32-24-37N, longitude: 099-40-54W, elevation: 1788 ft

Current weather observation

The report was made 1 hour and 7 minutes ago, at 01:52 UTC
Wind 5 mph from the East/Southeast
Temperature 43°F
Humidity 49%
Pressure 30.33 in. Hg
Visibility: 10 miles
Clear sky

METAR: KABI 150152Z 11004KT 10SM CLR 06/M04 A3033 RMK AO2 SLP276 T00561039

Time: 20:59 (02:59 UTC)

Forecast

The report was made 3 hours and 6 minutes ago, at 23:53 UTC
Forecast valid from 15 at 00 UTC to 15 at 24 UTC
Wind 6 mph from the Northwest
Visibility: 6 miles
Clear sky

TAF: KABI 142353Z 1500/1524 32005KT P6SM SKC

Weather observations and forecasts of more than 4000 airports (METAR and TAF reports).

The available stations are represented by yellow and red dots on the map.

Hover mouse over dot to see the name of the station.

Then click to see weather observations and forecasts.

To change the map : click on the green buttons with a black cross to zoom in, on the green button with a dash to zoom out, or on the green arrows for adjacent maps.


METAR-TAF: